BVLO2: Caney River, Bartlesville, OK

Data processed at Fri Jun 05 2020 23:15


All information presented herein is the property of the government of the United States of America and may be revised or deleted at any time without prior notice.
Dissemination of this information without the expressed written consent of the Public Affairs Office, Tulsa District U.S. Army Corps of Engineers is strictly prohibited.
These data are gathered electronically and, as presented, have not undergone any form of quality control. These data are not guaranteed to be valid or correct.
Go to home page.
Go to station list.
Go to home page.

Upstream stations:

Downstream station:
Previous Day
Next Day
Current Day
    
SHEF ID:       BVLO2     Caney River above Coon Creek at
STATION TYPE:  
Regulating: Stage =    13.00, Flow =    14009

               PRECIP     STAGE  STAGE(2)  RIV-FLOW  BAT-LOAD
                   in        ft        ft       cfs      volt
              Ccp-Rev   Ccp-Rev   Ccp-Rev   Ccp-Rev   Ccp-Rev
(US/Central)
06/05 00:00      0.00      5.95      9.07      3858     12.65
06/05 01:00      0.00      5.95      9.07      3858     12.65
06/05 02:00      0.00      5.94      9.09      3841     12.65
06/05 03:00      0.00      5.94      9.12      3841     12.65
06/05 04:00      0.00      5.94      9.17      3841     12.57
06/05 05:00      0.00      5.93      9.18      3825     12.57
06/05 06:00      0.00      5.94      9.18      3841     12.57
06/05 07:00      0.00      5.94      9.19      3841     12.57
06/05 08:00      0.00      5.94      9.24      3841     12.57
06/05 09:00      0.00      5.94      9.37      3841     12.89
06/05 10:00      0.00      5.93      9.29      3825     13.37
06/05 11:00      0.00      5.93      9.62      3825     13.60
06/05 12:00      0.00      5.93      9.53      3825     13.53
06/05 13:00      0.00      5.92      9.38      3808     13.29
06/05 14:00      0.00      5.90      9.32      3774     13.21
06/05 15:00      0.00      5.88      9.35      3740     13.13
06/05 16:00      0.00      5.85      9.22      3690     13.05
06/05 17:00      0.00      5.82      9.27      3640     12.97
06/05 18:00      0.00      5.79      9.27      3589     12.89
06/05 19:00      0.00      5.74      9.06      3504     12.81
06/05 20:00      0.00      5.69      9.23      3420     12.73
06/05 21:00      0.00      5.64      9.25      3337     12.65
06/05 22:00      0.00      5.59      9.17      3254     12.65
06/05 23:00      ----      ----      ----      ----      ----